createdAt,value
2023-02-15T00:00:12.472Z,26.14
2023-02-15T00:02:40.951Z,25.46
2023-02-15T00:05:09.691Z,26.64
2023-02-15T00:07:38.925Z,26.76
2023-02-15T00:10:08.252Z,26.23
2023-02-15T00:12:36.118Z,25.71
2023-02-15T00:15:04.024Z,26.14
2023-02-15T00:17:32.160Z,25.73
2023-02-15T00:20:00.090Z,26.63
2023-02-15T00:22:28.304Z,25.90
2023-02-15T00:24:57.547Z,25.72
2023-02-15T00:27:25.954Z,26.81
2023-02-15T00:29:53.951Z,26.39
2023-02-15T00:32:21.858Z,27.14
2023-02-15T00:34:49.759Z,27.17
2023-02-15T00:37:17.690Z,26.70
2023-02-15T00:39:45.578Z,27.26
2023-02-15T00:42:14.837Z,26.75
2023-02-15T00:44:42.684Z,26.10
2023-02-15T00:47:10.555Z,25.65
2023-02-15T00:49:38.441Z,25.84
2023-02-15T00:52:06.420Z,25.95
2023-02-15T00:54:35.547Z,26.29
2023-02-15T00:57:03.368Z,25.88
2023-02-15T00:59:35.990Z,26.25
2023-02-15T01:02:03.907Z,25.79
2023-02-15T01:04:31.897Z,25.24
2023-02-15T01:06:59.928Z,24.75
2023-02-15T01:09:27.917Z,25.91
2023-02-15T01:11:55.836Z,25.60
2023-02-15T01:14:25.008Z,26.53
2023-02-15T01:16:54.475Z,25.49
2023-02-15T01:19:22.367Z,25.61
2023-02-15T01:21:50.291Z,26.52
2023-02-15T01:24:18.134Z,26.52
2023-02-15T01:26:45.992Z,26.67
2023-02-15T01:29:13.880Z,26.00
2023-02-15T01:31:41.791Z,25.95
2023-02-15T01:34:11.084Z,26.06
2023-02-15T01:36:38.923Z,26.31
2023-02-15T01:39:08.680Z,25.19
2023-02-15T01:41:36.540Z,26.08
2023-02-15T01:44:05.689Z,26.29
2023-02-15T01:46:39.310Z,25.88
2023-02-15T01:49:16.562Z,26.18
2023-02-15T01:51:48.367Z,25.93
2023-02-15T01:54:26.262Z,25.87
2023-02-15T01:56:56.909Z,25.67
2023-02-15T01:59:27.549Z,23.78
2023-02-15T02:02:01.578Z,23.73
2023-02-15T02:04:37.921Z,24.34
2023-02-15T02:07:07.276Z,23.66
2023-02-15T02:09:35.227Z,23.66
2023-02-15T02:12:04.026Z,24.23
2023-02-15T02:14:32.137Z,24.09
2023-02-15T02:17:09.023Z,24.73
2023-02-15T02:20:09.424Z,24.55
2023-02-15T02:23:23.189Z,23.75
2023-02-15T02:26:19.411Z,23.86
2023-02-15T02:29:20.715Z,24.18
2023-02-15T02:32:19.682Z,23.14
2023-02-15T02:34:58.570Z,23.58
2023-02-15T02:37:37.189Z,24.14
2023-02-15T02:40:14.043Z,23.52
2023-02-15T02:42:46.078Z,22.45
2023-02-15T02:45:22.225Z,23.20
2023-02-15T02:47:57.818Z,23.17
2023-02-15T02:50:31.182Z,22.32
2023-02-15T02:53:00.966Z,22.93
2023-02-15T02:55:36.574Z,21.99
2023-02-15T02:58:12.479Z,22.29
2023-02-15T03:00:46.915Z,21.54
2023-02-15T03:03:24.701Z,22.31
2023-02-15T03:05:59.682Z,21.42
2023-02-15T03:08:33.856Z,22.30
2023-02-15T03:11:05.281Z,21.60
2023-02-15T03:13:36.043Z,22.05
2023-02-15T03:16:25.107Z,21.65
2023-02-15T03:18:59.227Z,22.15
2023-02-15T03:21:35.832Z,21.64
2023-02-15T03:24:10.018Z,21.56
2023-02-15T03:26:39.814Z,21.56
2023-02-15T03:29:12.160Z,21.33
2023-02-15T03:31:46.179Z,20.44
2023-02-15T03:34:17.382Z,20.67
2023-02-15T03:36:54.612Z,20.91
2023-02-15T03:39:31.870Z,20.76
2023-02-15T03:42:07.649Z,20.69
2023-02-15T03:44:46.157Z,20.75
2023-02-15T03:47:18.937Z,21.01
2023-02-15T03:49:54.351Z,19.98
2023-02-15T03:52:29.443Z,19.76
2023-02-15T03:54:57.559Z,19.81
2023-02-15T03:57:46.035Z,19.12
2023-02-15T04:00:36.263Z,20.37
2023-02-15T04:03:25.766Z,20.25
2023-02-15T04:05:53.879Z,20.91
2023-02-15T04:08:43.235Z,19.93
2023-02-15T04:11:10.146Z,20.48
2023-02-15T04:13:38.078Z,20.69
2023-02-15T04:16:06.078Z,20.53
2023-02-15T04:18:53.992Z,21.27
2023-02-15T04:21:41.374Z,20.52
2023-02-15T04:24:28.854Z,20.38
2023-02-15T04:26:57.735Z,20.62
2023-02-15T04:29:27.380Z,21.12
2023-02-15T04:31:57.804Z,21.15
2023-02-15T04:34:26.486Z,21.43
2023-02-15T04:36:54.348Z,21.39
2023-02-15T04:39:23.601Z,21.05
2023-02-15T04:41:51.545Z,21.01
2023-02-15T04:44:19.432Z,21.19
2023-02-15T04:46:47.326Z,19.77
2023-02-15T04:49:15.204Z,20.78
2023-02-15T04:51:43.153Z,20.93
2023-02-15T04:54:11.037Z,21.08
2023-02-15T04:56:40.267Z,20.60
2023-02-15T04:59:08.196Z,20.56
2023-02-15T05:01:36.096Z,20.63
2023-02-15T05:04:04.087Z,21.15
2023-02-15T05:06:32.052Z,21.44
2023-02-15T05:09:00.404Z,21.49
2023-02-15T05:11:29.096Z,20.51
2023-02-15T05:13:58.374Z,21.00
2023-02-15T05:16:26.739Z,21.17
2023-02-15T05:18:54.597Z,21.32
2023-02-15T05:21:22.519Z,21.31
2023-02-15T05:23:50.420Z,22.35
2023-02-15T05:26:39.519Z,21.46
2023-02-15T05:29:09.858Z,21.55
2023-02-15T05:31:38.193Z,22.11
2023-02-15T05:34:06.165Z,20.78
2023-02-15T05:36:34.026Z,21.60
2023-02-15T05:39:01.874Z,22.57
2023-02-15T05:41:29.799Z,23.14
2023-02-15T05:43:58.307Z,21.77
2023-02-15T05:46:27.531Z,22.25
2023-02-15T05:48:55.403Z,22.03
2023-02-15T05:51:23.289Z,21.66
2023-02-15T05:53:51.196Z,20.86
2023-02-15T05:56:19.084Z,22.15
2023-02-15T05:58:46.949Z,21.75
2023-02-15T06:01:18.111Z,21.67
2023-02-15T06:03:47.911Z,21.43
2023-02-15T06:06:15.850Z,20.50
2023-02-15T06:08:44.336Z,20.30
2023-02-15T06:11:12.890Z,20.68
2023-02-15T06:13:40.789Z,20.69
2023-02-15T06:16:08.996Z,20.87
2023-02-15T06:18:36.932Z,20.43
2023-02-15T06:21:06.293Z,20.47
2023-02-15T06:23:34.188Z,21.47
2023-02-15T06:26:02.398Z,21.02
2023-02-15T06:28:30.509Z,20.72
2023-02-15T06:30:58.562Z,21.46
2023-02-15T06:33:26.685Z,20.74
2023-02-15T06:35:54.595Z,21.19
2023-02-15T06:38:24.076Z,20.54
2023-02-15T06:40:52.025Z,22.13
2023-02-15T06:43:19.924Z,21.34
2023-02-15T06:45:47.875Z,21.09
2023-02-15T06:48:15.745Z,22.52
2023-02-15T06:50:43.844Z,22.27
2023-02-15T06:53:11.753Z,21.92
2023-02-15T06:55:40.968Z,21.48
2023-02-15T06:58:08.843Z,21.07
2023-02-15T07:00:39.739Z,20.43
2023-02-15T07:03:07.603Z,20.84
2023-02-15T07:05:36.916Z,19.92
2023-02-15T07:08:05.304Z,19.66
2023-02-15T07:10:33.183Z,19.92
2023-02-15T07:13:01.443Z,19.79
2023-02-15T07:15:29.434Z,19.86
2023-02-15T07:17:58.841Z,20.39
2023-02-15T07:20:26.805Z,20.16
2023-02-15T07:22:54.707Z,21.47
2023-02-15T07:25:22.562Z,19.99
2023-02-15T07:27:50.415Z,19.33
2023-02-15T07:30:19.813Z,20.43
2023-02-15T07:33:06.007Z,19.84
2023-02-15T07:35:34.121Z,18.89
2023-02-15T07:38:02.467Z,19.68
2023-02-15T07:40:30.354Z,19.85
2023-02-15T07:43:00.476Z,19.34
2023-02-15T07:45:29.733Z,18.61
2023-02-15T07:47:57.684Z,19.32
2023-02-15T07:50:25.624Z,18.66
2023-02-15T07:52:53.508Z,19.41
2023-02-15T07:55:21.822Z,19.22
2023-02-15T07:57:52.322Z,19.95
2023-02-15T08:00:25.639Z,19.73
2023-02-15T08:03:10.704Z,18.76
2023-02-15T08:05:38.794Z,18.84
2023-02-15T08:08:07.251Z,20.08
2023-02-15T08:10:52.677Z,19.77
2023-02-15T08:13:20.554Z,20.37
2023-02-15T08:15:51.737Z,20.59
2023-02-15T08:18:20.963Z,20.12
2023-02-15T08:20:51.907Z,19.84
2023-02-15T08:23:19.781Z,19.44
2023-02-15T08:25:47.731Z,19.57
2023-02-15T08:28:15.582Z,19.81
2023-02-15T08:30:43.443Z,19.92
2023-02-15T08:33:11.548Z,20.79
2023-02-15T08:35:40.782Z,21.46
2023-02-15T08:38:08.682Z,20.51
2023-02-15T08:40:39.009Z,20.14
2023-02-15T08:43:08.085Z,20.33
2023-02-15T08:45:35.972Z,21.16
2023-02-15T08:48:03.853Z,22.44
2023-02-15T08:50:31.826Z,21.73
2023-02-15T08:53:01.069Z,21.81
2023-02-15T08:55:28.938Z,20.80
2023-02-15T08:57:56.844Z,18.62
2023-02-15T09:00:26.107Z,18.75
2023-02-15T09:02:54.356Z,18.63
2023-02-15T09:05:22.253Z,18.88
2023-02-15T09:07:50.143Z,18.25
2023-02-15T09:10:19.794Z,18.89
2023-02-15T09:12:47.905Z,18.88
2023-02-15T09:15:15.884Z,19.69
2023-02-15T09:17:43.778Z,19.19
2023-02-15T09:20:12.121Z,19.25
2023-02-15T09:22:40.020Z,19.27
2023-02-15T09:25:08.139Z,19.40
2023-02-15T09:27:37.744Z,18.83
2023-02-15T09:30:06.852Z,18.42
2023-02-15T09:32:34.786Z,18.63
2023-02-15T09:35:02.646Z,18.46
2023-02-15T09:37:32.739Z,19.51
2023-02-15T09:40:01.163Z,19.81
2023-02-15T09:43:04.592Z,18.93
2023-02-15T09:45:49.704Z,18.85
2023-02-15T09:48:40.493Z,20.38
2023-02-15T09:51:39.015Z,22.04
2023-02-15T09:54:32.720Z,23.10
2023-02-15T09:57:10.496Z,20.27
2023-02-15T09:59:52.773Z,19.05
2023-02-15T10:02:41.161Z,19.38
2023-02-15T10:05:27.370Z,19.98
2023-02-15T10:08:24.321Z,20.36
2023-02-15T10:11:24.490Z,20.74
2023-02-15T10:14:09.903Z,19.02
2023-02-15T10:16:48.641Z,19.49
2023-02-15T10:19:34.758Z,19.89
2023-02-15T10:22:23.220Z,19.19
2023-02-15T10:25:18.372Z,18.99
2023-02-15T10:27:49.447Z,19.73
2023-02-15T10:30:20.063Z,20.41
2023-02-15T10:33:01.002Z,20.19
2023-02-15T10:35:41.139Z,20.63
2023-02-15T10:38:23.740Z,20.47
2023-02-15T10:41:10.874Z,19.81
2023-02-15T10:44:00.225Z,19.57
2023-02-15T10:46:48.464Z,19.49
2023-02-15T10:49:39.842Z,19.32
2023-02-15T10:52:30.296Z,18.88
2023-02-15T10:55:09.938Z,19.34
2023-02-15T10:57:54.588Z,19.08
2023-02-15T11:00:32.093Z,20.11
2023-02-15T11:03:23.345Z,20.35
2023-02-15T11:06:04.798Z,20.10
2023-02-15T11:08:39.076Z,21.60
2023-02-15T11:11:11.707Z,20.89
2023-02-15T11:13:47.367Z,21.92
2023-02-15T11:16:19.468Z,22.51
2023-02-15T11:18:53.574Z,22.72
2023-02-15T11:21:28.168Z,24.37
2023-02-15T11:23:57.956Z,24.08
2023-02-15T11:26:33.719Z,24.02
2023-02-15T11:29:12.619Z,24.63
2023-02-15T11:31:47.184Z,23.99
2023-02-15T11:34:22.687Z,24.99
2023-02-15T11:36:56.971Z,25.53
2023-02-15T11:39:32.688Z,26.86
2023-02-15T11:42:09.036Z,25.32
2023-02-15T11:44:43.898Z,26.64
2023-02-15T11:47:13.836Z,26.23
2023-02-15T11:49:42.155Z,26.90
2023-02-15T11:52:16.857Z,25.46
2023-02-15T11:54:51.032Z,26.08
2023-02-15T11:57:27.340Z,25.45
2023-02-15T12:00:00.680Z,25.73
2023-02-15T12:02:31.035Z,27.26
2023-02-15T12:05:05.192Z,26.45
2023-02-15T12:07:38.914Z,26.45
2023-02-15T12:10:22.561Z,26.62
2023-02-15T12:12:50.519Z,26.70
2023-02-15T12:15:33.642Z,25.86
2023-02-15T12:18:01.667Z,26.04
2023-02-15T12:20:34.436Z,26.37
2023-02-15T12:23:06.505Z,25.49
2023-02-15T12:25:42.381Z,26.55
2023-02-15T12:28:27.622Z,26.34
2023-02-15T12:30:58.376Z,26.59
2023-02-15T12:33:32.321Z,26.32
2023-02-15T12:36:05.696Z,25.87
2023-02-15T12:38:36.789Z,27.19
2023-02-15T12:41:22.059Z,26.57
2023-02-15T12:44:07.221Z,27.31
2023-02-15T12:46:38.904Z,27.09
2023-02-15T12:49:09.883Z,27.42
2023-02-15T12:51:49.665Z,27.45
2023-02-15T12:54:32.917Z,31.56
2023-02-15T12:57:17.000Z,29.36
2023-02-15T12:59:52.305Z,27.52
2023-02-15T13:02:29.313Z,27.06
2023-02-15T13:05:06.332Z,26.87
2023-02-15T13:07:35.006Z,26.39
2023-02-15T13:10:03.256Z,26.24
2023-02-15T13:12:34.629Z,27.42
2023-02-15T13:15:04.074Z,26.75
2023-02-15T13:17:35.495Z,26.66
2023-02-15T13:20:12.683Z,28.27
2023-02-15T13:22:46.616Z,27.71
2023-02-15T13:25:21.012Z,28.26
2023-02-15T13:27:54.593Z,29.61
2023-02-15T13:30:28.144Z,29.61
2023-02-15T13:33:02.916Z,29.24
2023-02-15T13:35:41.444Z,28.53
2023-02-15T13:38:27.687Z,28.60
2023-02-15T13:41:00.859Z,28.50
2023-02-15T13:43:45.744Z,28.37
2023-02-15T13:46:37.444Z,28.33
2023-02-15T13:49:20.815Z,27.89
2023-02-15T13:52:01.233Z,28.18
2023-02-15T13:54:49.524Z,28.29
2023-02-15T13:57:37.718Z,28.00
2023-02-15T14:00:23.307Z,28.17
2023-02-15T14:03:11.121Z,28.42
2023-02-15T14:05:59.081Z,28.66
2023-02-15T14:08:45.318Z,27.82
2023-02-15T14:11:24.727Z,27.22
2023-02-15T14:14:28.438Z,27.35
2023-02-15T14:17:10.706Z,27.79
2023-02-15T14:19:50.771Z,28.05
2023-02-15T14:22:32.931Z,28.92
2023-02-15T14:25:19.214Z,28.16
2023-02-15T14:28:01.264Z,28.13
2023-02-15T14:30:35.517Z,27.37
2023-02-15T14:33:09.890Z,27.98
2023-02-15T14:35:39.332Z,27.51
2023-02-15T14:38:22.494Z,28.08
2023-02-15T14:41:02.563Z,28.39
2023-02-15T14:43:49.856Z,29.58
2023-02-15T14:46:28.838Z,29.58
2023-02-15T14:49:09.245Z,29.40
2023-02-15T14:51:58.962Z,30.47
2023-02-15T14:54:56.039Z,30.31
2023-02-15T14:57:33.377Z,31.30
2023-02-15T15:00:25.869Z,30.30
2023-02-15T15:02:55.472Z,30.60
2023-02-15T15:05:36.776Z,30.34
2023-02-15T15:08:06.822Z,31.33
2023-02-15T15:10:46.178Z,31.00
2023-02-15T15:13:38.953Z,30.45
2023-02-15T15:16:27.719Z,30.65
2023-02-15T15:18:56.057Z,31.42
2023-02-15T15:22:04.471Z,32.63
2023-02-15T15:24:53.196Z,33.81
2023-02-15T15:27:55.286Z,32.82
2023-02-15T15:30:52.200Z,31.75
2023-02-15T15:34:01.819Z,31.28
2023-02-15T15:36:57.220Z,30.70
2023-02-15T15:40:13.977Z,31.48
2023-02-15T15:42:52.557Z,31.64
2023-02-15T15:45:50.578Z,33.29
2023-02-15T15:48:34.585Z,33.45
2023-02-15T15:51:07.623Z,33.32
2023-02-15T15:53:43.340Z,33.46
2023-02-15T15:56:18.569Z,32.83
2023-02-15T15:58:52.174Z,32.04
2023-02-15T16:01:28.983Z,31.39
2023-02-15T16:03:59.759Z,31.75
2023-02-15T16:06:34.275Z,31.32
2023-02-15T16:09:13.946Z,32.10
2023-02-15T16:11:43.927Z,32.67
2023-02-15T16:14:19.425Z,31.74
2023-02-15T16:16:54.191Z,31.32
2023-02-15T16:19:26.294Z,31.56
2023-02-15T16:21:57.036Z,35.48
2023-02-15T16:24:36.426Z,31.29
2023-02-15T16:27:27.893Z,30.38
2023-02-15T16:29:55.913Z,31.67
2023-02-15T16:32:25.685Z,32.39
2023-02-15T16:34:55.978Z,30.84
2023-02-15T16:37:27.867Z,32.65
2023-02-15T16:39:57.563Z,30.07
2023-02-15T16:42:27.295Z,30.62
2023-02-15T16:45:01.289Z,29.08
2023-02-15T16:47:33.353Z,30.55
2023-02-15T16:50:06.066Z,30.18
2023-02-15T16:52:34.560Z,28.40
2023-02-15T16:55:08.054Z,28.83
2023-02-15T16:57:40.373Z,29.32
2023-02-15T17:00:24.406Z,28.76
2023-02-15T17:03:00.038Z,27.26
2023-02-15T17:05:34.063Z,26.08
2023-02-15T17:08:18.066Z,28.91
2023-02-15T17:11:03.896Z,28.29
2023-02-15T17:13:33.713Z,27.66
2023-02-15T17:16:30.416Z,29.52
2023-02-15T17:18:59.808Z,32.11
2023-02-15T17:21:34.457Z,30.75
2023-02-15T17:24:05.210Z,29.55
2023-02-15T17:26:36.822Z,28.79
2023-02-15T17:29:28.716Z,27.85
2023-02-15T17:31:59.491Z,27.49
2023-02-15T17:35:09.075Z,26.35
2023-02-15T17:37:48.871Z,26.18
2023-02-15T17:40:26.281Z,26.51
2023-02-15T17:42:55.142Z,27.38
2023-02-15T17:45:28.051Z,26.12
2023-02-15T17:47:58.156Z,26.05
2023-02-15T17:50:29.217Z,25.42
2023-02-15T17:52:59.501Z,26.11
2023-02-15T17:55:38.976Z,25.10
2023-02-15T17:58:09.552Z,24.71
2023-02-15T18:01:01.981Z,25.20
2023-02-15T18:03:59.126Z,25.44
2023-02-15T18:06:45.043Z,25.20
2023-02-15T18:09:32.696Z,25.62
2023-02-15T18:12:00.813Z,28.45
2023-02-15T18:14:28.737Z,28.41
2023-02-15T18:16:58.167Z,26.84
2023-02-15T18:19:28.723Z,27.78
2023-02-15T18:21:57.962Z,26.29
2023-02-15T18:24:27.866Z,27.18
2023-02-15T18:26:56.021Z,28.32
2023-02-15T18:29:23.992Z,29.11
2023-02-15T18:31:56.965Z,34.74
2023-02-15T18:34:30.808Z,39.46
2023-02-15T18:37:03.107Z,35.08
2023-02-15T18:39:38.952Z,28.95
2023-02-15T18:42:08.050Z,30.03
2023-02-15T18:44:35.920Z,33.58
2023-02-15T18:47:03.911Z,33.85
2023-02-15T18:49:33.199Z,29.88
2023-02-15T18:52:03.000Z,28.09
2023-02-15T18:54:31.098Z,28.83
2023-02-15T18:57:01.873Z,29.33
2023-02-15T18:59:31.199Z,31.57
2023-02-15T19:02:00.488Z,29.70
2023-02-15T19:04:28.519Z,28.77
2023-02-15T19:06:57.810Z,28.98
2023-02-15T19:09:27.819Z,28.74
2023-02-15T19:11:57.576Z,27.97
2023-02-15T19:14:28.614Z,27.80
2023-02-15T19:16:57.727Z,28.54
2023-02-15T19:19:26.201Z,26.57
2023-02-15T19:21:55.086Z,27.19
2023-02-15T19:24:32.174Z,27.69
2023-02-15T19:27:00.202Z,31.51
2023-02-15T19:29:32.048Z,30.28
2023-02-15T19:32:00.153Z,28.04
2023-02-15T19:34:28.878Z,27.09
2023-02-15T19:36:57.782Z,27.07
2023-02-15T19:39:31.172Z,27.28
2023-02-15T19:41:59.089Z,27.18
2023-02-15T19:44:27.015Z,27.03
2023-02-15T19:46:54.961Z,27.22
2023-02-15T19:49:22.905Z,27.95
2023-02-15T19:51:51.181Z,27.38
2023-02-15T19:54:30.932Z,27.85
2023-02-15T19:56:59.079Z,28.32
2023-02-15T19:59:29.752Z,28.74
2023-02-15T20:01:58.572Z,28.81
2023-02-15T20:04:27.706Z,35.14
2023-02-15T20:06:59.000Z,33.95
2023-02-15T20:09:32.696Z,30.66
2023-02-15T20:12:01.483Z,28.79
2023-02-15T20:14:29.712Z,27.86
2023-02-15T20:16:57.603Z,30.91
2023-02-15T20:19:25.602Z,29.16
2023-02-15T20:21:55.002Z,28.17
2023-02-15T20:24:28.080Z,28.47
2023-02-15T20:26:57.538Z,28.65
2023-02-15T20:29:25.433Z,28.77
2023-02-15T20:31:55.367Z,30.38
2023-02-15T20:34:23.563Z,29.94
2023-02-15T20:36:52.565Z,30.15
2023-02-15T20:39:20.730Z,29.33
2023-02-15T20:41:48.719Z,28.10
2023-02-15T20:44:23.942Z,28.17
2023-02-15T20:46:54.196Z,28.52
2023-02-15T20:49:23.978Z,29.73
2023-02-15T20:51:53.142Z,28.86
2023-02-15T20:54:23.885Z,29.51
2023-02-15T20:56:52.407Z,29.54
2023-02-15T20:59:27.338Z,28.96
2023-02-15T21:02:00.341Z,29.10
2023-02-15T21:04:32.356Z,28.79
2023-02-15T21:07:02.171Z,28.82
2023-02-15T21:09:30.752Z,29.01
2023-02-15T21:12:02.278Z,28.97
2023-02-15T21:14:31.591Z,29.41
2023-02-15T21:16:59.434Z,28.87
2023-02-15T21:19:28.271Z,29.01
2023-02-15T21:21:57.383Z,29.01
2023-02-15T21:24:28.978Z,29.77
2023-02-15T21:27:01.223Z,30.09
2023-02-15T21:29:31.844Z,29.30
2023-02-15T21:32:00.557Z,29.82
2023-02-15T21:34:28.503Z,29.88
2023-02-15T21:36:56.584Z,29.25
2023-02-15T21:39:27.170Z,30.20
2023-02-15T21:42:14.649Z,30.06
2023-02-15T21:45:01.437Z,29.72
2023-02-15T21:47:48.523Z,29.69
2023-02-15T21:50:36.077Z,30.75
2023-02-15T21:53:05.697Z,29.35
2023-02-15T21:55:34.388Z,28.88
2023-02-15T21:58:02.425Z,29.47
2023-02-15T22:00:33.607Z,29.94
2023-02-15T22:03:02.090Z,29.72
2023-02-15T22:05:32.170Z,30.05
2023-02-15T22:08:00.391Z,29.71
2023-02-15T22:10:31.950Z,29.59
2023-02-15T22:13:02.603Z,29.55
2023-02-15T22:15:36.778Z,29.69
2023-02-15T22:18:05.921Z,29.87
2023-02-15T22:20:33.790Z,28.91
2023-02-15T22:23:01.692Z,29.04
2023-02-15T22:25:29.653Z,28.69
2023-02-15T22:27:57.862Z,28.71
2023-02-15T22:30:29.072Z,28.62
2023-02-15T22:33:00.429Z,27.88
2023-02-15T22:35:31.121Z,28.04
2023-02-15T22:37:59.212Z,28.46
2023-02-15T22:40:31.037Z,28.23
2023-02-15T22:43:02.217Z,28.56
2023-02-15T22:45:30.259Z,27.78
2023-02-15T22:48:02.808Z,28.35
2023-02-15T22:50:33.767Z,28.73
2023-02-15T22:53:03.889Z,28.34
2023-02-15T22:55:37.312Z,28.05
2023-02-15T22:58:06.300Z,27.17
2023-02-15T23:00:40.663Z,27.99
2023-02-15T23:03:16.751Z,27.41
2023-02-15T23:05:45.622Z,28.04
2023-02-15T23:08:14.392Z,27.90
2023-02-15T23:10:44.955Z,28.61
2023-02-15T23:13:25.621Z,28.81
2023-02-15T23:15:56.941Z,28.93
2023-02-15T23:18:29.793Z,28.64
2023-02-15T23:20:59.926Z,28.93
2023-02-15T23:23:32.055Z,28.63
2023-02-15T23:26:03.147Z,27.72
2023-02-15T23:28:35.920Z,28.55
2023-02-15T23:31:07.201Z,28.03
2023-02-15T23:33:37.521Z,27.47
2023-02-15T23:36:06.110Z,27.38
2023-02-15T23:38:34.379Z,28.00
2023-02-15T23:41:19.056Z,28.00
2023-02-15T23:43:50.867Z,27.53
2023-02-15T23:46:27.696Z,28.10
2023-02-15T23:48:57.377Z,27.97
2023-02-15T23:51:31.089Z,28.23
2023-02-15T23:53:59.410Z,28.99
2023-02-15T23:56:27.519Z,29.43
2023-02-15T23:58:55.644Z,27.67
